sensor_id;sensor_type;location;lat;lon;timestamp;P1;durP1;ratioP1;P2;durP2;ratioP2
49101;SDS011;34913;47.520;19.186;2024-03-07T00:02:04;14.90;;;10.55;;
49101;SDS011;34913;47.520;19.186;2024-03-07T00:04:29;14.85;;;10.82;;
49101;SDS011;34913;47.520;19.186;2024-03-07T00:06:55;16.35;;;10.77;;
49101;SDS011;34913;47.520;19.186;2024-03-07T00:09:20;15.32;;;10.60;;
49101;SDS011;34913;47.520;19.186;2024-03-07T00:11:49;15.90;;;10.43;;
49101;SDS011;34913;47.520;19.186;2024-03-07T00:14:17;17.73;;;10.80;;
49101;SDS011;34913;47.520;19.186;2024-03-07T00:16:43;18.40;;;11.05;;
49101;SDS011;34913;47.520;19.186;2024-03-07T00:19:08;16.73;;;10.60;;
49101;SDS011;34913;47.520;19.186;2024-03-07T00:21:33;15.63;;;10.70;;
49101;SDS011;34913;47.520;19.186;2024-03-07T00:23:59;16.08;;;10.80;;
49101;SDS011;34913;47.520;19.186;2024-03-07T00:26:25;17.63;;;10.60;;
49101;SDS011;34913;47.520;19.186;2024-03-07T00:28:51;18.13;;;12.13;;
49101;SDS011;34913;47.520;19.186;2024-03-07T00:31:16;17.17;;;11.02;;
49101;SDS011;34913;47.520;19.186;2024-03-07T00:33:42;16.20;;;11.00;;
49101;SDS011;34913;47.520;19.186;2024-03-07T00:36:07;15.35;;;10.23;;
49101;SDS011;34913;47.520;19.186;2024-03-07T00:38:33;16.75;;;11.18;;
49101;SDS011;34913;47.520;19.186;2024-03-07T00:40:58;16.63;;;11.57;;
49101;SDS011;34913;47.520;19.186;2024-03-07T00:43:24;15.85;;;10.45;;
49101;SDS011;34913;47.520;19.186;2024-03-07T00:45:50;16.20;;;10.70;;
49101;SDS011;34913;47.520;19.186;2024-03-07T00:48:16;15.57;;;10.85;;
49101;SDS011;34913;47.520;19.186;2024-03-07T00:50:42;15.63;;;10.60;;
49101;SDS011;34913;47.520;19.186;2024-03-07T00:53:10;16.83;;;11.07;;
49101;SDS011;34913;47.520;19.186;2024-03-07T00:55:35;16.42;;;10.80;;
49101;SDS011;34913;47.520;19.186;2024-03-07T00:58:01;16.60;;;10.82;;
49101;SDS011;34913;47.520;19.186;2024-03-07T01:00:28;15.52;;;9.95;;
49101;SDS011;34913;47.520;19.186;2024-03-07T01:02:53;15.02;;;10.27;;
49101;SDS011;34913;47.520;19.186;2024-03-07T01:05:19;14.23;;;9.70;;
49101;SDS011;34913;47.520;19.186;2024-03-07T01:07:45;14.35;;;9.60;;
49101;SDS011;34913;47.520;19.186;2024-03-07T01:10:13;13.75;;;9.25;;
49101;SDS011;34913;47.520;19.186;2024-03-07T01:12:39;13.93;;;9.55;;
49101;SDS011;34913;47.520;19.186;2024-03-07T01:15:05;12.63;;;8.80;;
49101;SDS011;34913;47.520;19.186;2024-03-07T01:17:32;15.48;;;9.52;;
49101;SDS011;34913;47.520;19.186;2024-03-07T01:19:57;13.98;;;9.32;;
49101;SDS011;34913;47.520;19.186;2024-03-07T01:22:23;13.93;;;9.50;;
49101;SDS011;34913;47.520;19.186;2024-03-07T01:24:49;12.45;;;9.07;;
49101;SDS011;34913;47.520;19.186;2024-03-07T01:27:16;12.63;;;8.80;;
49101;SDS011;34913;47.520;19.186;2024-03-07T01:29:41;15.95;;;9.55;;
49101;SDS011;34913;47.520;19.186;2024-03-07T01:32:08;12.70;;;9.18;;
49101;SDS011;34913;47.520;19.186;2024-03-07T01:34:33;13.80;;;9.00;;
49101;SDS011;34913;47.520;19.186;2024-03-07T01:36:58;12.98;;;9.00;;
49101;SDS011;34913;47.520;19.186;2024-03-07T01:39:24;13.15;;;8.32;;
49101;SDS011;34913;47.520;19.186;2024-03-07T01:41:49;13.05;;;8.63;;
49101;SDS011;34913;47.520;19.186;2024-03-07T01:44:14;13.05;;;8.98;;
49101;SDS011;34913;47.520;19.186;2024-03-07T01:46:40;13.32;;;8.95;;
49101;SDS011;34913;47.520;19.186;2024-03-07T01:49:06;11.82;;;9.10;;
49101;SDS011;34913;47.520;19.186;2024-03-07T01:51:33;12.85;;;8.90;;
49101;SDS011;34913;47.520;19.186;2024-03-07T01:53:59;12.75;;;8.50;;
49101;SDS011;34913;47.520;19.186;2024-03-07T01:56:26;11.82;;;8.18;;
49101;SDS011;34913;47.520;19.186;2024-03-07T01:58:52;13.00;;;9.02;;
49101;SDS011;34913;47.520;19.186;2024-03-07T02:01:19;13.23;;;8.43;;
49101;SDS011;34913;47.520;19.186;2024-03-07T02:03:44;13.38;;;8.50;;
49101;SDS011;34913;47.520;19.186;2024-03-07T02:06:09;12.18;;;8.68;;
49101;SDS011;34913;47.520;19.186;2024-03-07T02:08:37;13.15;;;8.93;;
49101;SDS011;34913;47.520;19.186;2024-03-07T02:11:03;14.80;;;8.20;;
49101;SDS011;34913;47.520;19.186;2024-03-07T02:13:28;11.65;;;8.27;;
49101;SDS011;34913;47.520;19.186;2024-03-07T02:15:54;13.10;;;8.95;;
49101;SDS011;34913;47.520;19.186;2024-03-07T02:18:22;12.43;;;8.13;;
49101;SDS011;34913;47.520;19.186;2024-03-07T02:20:47;13.63;;;8.45;;
49101;SDS011;34913;47.520;19.186;2024-03-07T02:23:13;10.35;;;7.80;;
49101;SDS011;34913;47.520;19.186;2024-03-07T02:25:39;13.07;;;8.52;;
49101;SDS011;34913;47.520;19.186;2024-03-07T02:28:05;11.80;;;8.15;;
49101;SDS011;34913;47.520;19.186;2024-03-07T02:30:30;12.20;;;8.25;;
49101;SDS011;34913;47.520;19.186;2024-03-07T02:32:57;11.90;;;7.97;;
49101;SDS011;34913;47.520;19.186;2024-03-07T02:35:24;12.13;;;7.88;;
49101;SDS011;34913;47.520;19.186;2024-03-07T02:37:50;12.27;;;8.38;;
49101;SDS011;34913;47.520;19.186;2024-03-07T02:40:15;12.77;;;7.85;;
49101;SDS011;34913;47.520;19.186;2024-03-07T02:42:41;12.80;;;7.63;;
49101;SDS011;34913;47.520;19.186;2024-03-07T02:45:08;12.13;;;7.63;;
49101;SDS011;34913;47.520;19.186;2024-03-07T02:47:35;10.57;;;7.38;;
49101;SDS011;34913;47.520;19.186;2024-03-07T02:50:01;11.45;;;7.35;;
49101;SDS011;34913;47.520;19.186;2024-03-07T02:52:26;11.52;;;7.30;;
49101;SDS011;34913;47.520;19.186;2024-03-07T02:54:52;10.98;;;7.07;;
49101;SDS011;34913;47.520;19.186;2024-03-07T02:57:17;11.38;;;7.15;;
49101;SDS011;34913;47.520;19.186;2024-03-07T02:59:43;11.35;;;7.35;;
49101;SDS011;34913;47.520;19.186;2024-03-07T03:02:08;9.63;;;6.63;;
49101;SDS011;34913;47.520;19.186;2024-03-07T03:04:33;10.10;;;6.65;;
49101;SDS011;34913;47.520;19.186;2024-03-07T03:06:59;10.18;;;7.00;;
49101;SDS011;34913;47.520;19.186;2024-03-07T03:09:25;10.32;;;6.60;;
49101;SDS011;34913;47.520;19.186;2024-03-07T03:11:50;9.65;;;6.75;;
49101;SDS011;34913;47.520;19.186;2024-03-07T03:14:16;10.82;;;7.07;;
49101;SDS011;34913;47.520;19.186;2024-03-07T03:16:42;11.32;;;7.13;;
49101;SDS011;34913;47.520;19.186;2024-03-07T03:19:09;10.57;;;6.38;;
49101;SDS011;34913;47.520;19.186;2024-03-07T03:21:34;9.73;;;6.28;;
49101;SDS011;34913;47.520;19.186;2024-03-07T03:24:00;8.32;;;6.35;;
49101;SDS011;34913;47.520;19.186;2024-03-07T03:26:27;10.00;;;6.55;;
49101;SDS011;34913;47.520;19.186;2024-03-07T03:28:53;8.98;;;6.20;;
49101;SDS011;34913;47.520;19.186;2024-03-07T03:31:18;8.50;;;6.22;;
49101;SDS011;34913;47.520;19.186;2024-03-07T03:33:45;7.95;;;5.82;;
49101;SDS011;34913;47.520;19.186;2024-03-07T03:36:10;8.10;;;5.78;;
49101;SDS011;34913;47.520;19.186;2024-03-07T03:38:36;8.02;;;5.15;;
49101;SDS011;34913;47.520;19.186;2024-03-07T03:41:01;7.35;;;5.10;;
49101;SDS011;34913;47.520;19.186;2024-03-07T03:43:27;7.45;;;5.15;;
49101;SDS011;34913;47.520;19.186;2024-03-07T03:45:52;8.43;;;5.38;;
49101;SDS011;34913;47.520;19.186;2024-03-07T03:48:17;7.80;;;5.00;;
49101;SDS011;34913;47.520;19.186;2024-03-07T03:50:42;6.47;;;4.35;;
49101;SDS011;34913;47.520;19.186;2024-03-07T03:53:08;6.60;;;4.55;;
49101;SDS011;34913;47.520;19.186;2024-03-07T03:55:33;5.63;;;4.35;;
49101;SDS011;34913;47.520;19.186;2024-03-07T03:57:59;5.97;;;4.70;;
49101;SDS011;34913;47.520;19.186;2024-03-07T04:00:24;5.63;;;4.20;;
49101;SDS011;34913;47.520;19.186;2024-03-07T04:02:50;6.88;;;4.70;;
49101;SDS011;34913;47.520;19.186;2024-03-07T04:05:16;4.93;;;4.10;;
49101;SDS011;34913;47.520;19.186;2024-03-07T04:07:43;6.05;;;4.18;;
49101;SDS011;34913;47.520;19.186;2024-03-07T04:10:08;5.70;;;4.22;;
49101;SDS011;34913;47.520;19.186;2024-03-07T04:12:36;6.20;;;4.20;;
49101;SDS011;34913;47.520;19.186;2024-03-07T04:15:02;5.55;;;4.25;;
49101;SDS011;34913;47.520;19.186;2024-03-07T04:17:29;5.95;;;4.40;;
49101;SDS011;34913;47.520;19.186;2024-03-07T04:19:56;4.85;;;4.28;;
49101;SDS011;34913;47.520;19.186;2024-03-07T04:22:23;5.43;;;4.30;;
49101;SDS011;34913;47.520;19.186;2024-03-07T04:24:49;6.93;;;4.65;;
49101;SDS011;34913;47.520;19.186;2024-03-07T04:27:18;5.18;;;4.10;;
49101;SDS011;34913;47.520;19.186;2024-03-07T04:29:44;5.68;;;4.70;;
49101;SDS011;34913;47.520;19.186;2024-03-07T04:32:12;6.05;;;4.70;;
49101;SDS011;34913;47.520;19.186;2024-03-07T04:34:38;6.70;;;4.65;;
49101;SDS011;34913;47.520;19.186;2024-03-07T04:37:04;6.00;;;4.60;;
49101;SDS011;34913;47.520;19.186;2024-03-07T04:39:29;5.50;;;4.32;;
49101;SDS011;34913;47.520;19.186;2024-03-07T04:41:59;5.65;;;4.20;;
49101;SDS011;34913;47.520;19.186;2024-03-07T04:44:30;6.32;;;4.80;;
49101;SDS011;34913;47.520;19.186;2024-03-07T04:46:57;5.45;;;4.10;;
49101;SDS011;34913;47.520;19.186;2024-03-07T04:49:22;6.32;;;4.30;;
49101;SDS011;34913;47.520;19.186;2024-03-07T04:51:55;5.13;;;4.18;;
49101;SDS011;34913;47.520;19.186;2024-03-07T04:54:23;6.95;;;4.88;;
49101;SDS011;34913;47.520;19.186;2024-03-07T04:56:50;8.43;;;5.43;;
49101;SDS011;34913;47.520;19.186;2024-03-07T04:59:16;9.38;;;5.95;;
49101;SDS011;34913;47.520;19.186;2024-03-07T05:01:43;12.93;;;6.70;;
49101;SDS011;34913;47.520;19.186;2024-03-07T05:04:09;11.65;;;6.82;;
49101;SDS011;34913;47.520;19.186;2024-03-07T05:06:36;10.73;;;6.40;;
49101;SDS011;34913;47.520;19.186;2024-03-07T05:09:02;10.02;;;6.57;;
49101;SDS011;34913;47.520;19.186;2024-03-07T05:11:29;9.77;;;6.18;;
49101;SDS011;34913;47.520;19.186;2024-03-07T05:13:55;9.32;;;6.07;;
49101;SDS011;34913;47.520;19.186;2024-03-07T05:16:20;9.63;;;6.07;;
49101;SDS011;34913;47.520;19.186;2024-03-07T05:18:45;8.20;;;5.70;;
49101;SDS011;34913;47.520;19.186;2024-03-07T05:21:11;11.70;;;6.65;;
49101;SDS011;34913;47.520;19.186;2024-03-07T05:23:56;8.27;;;6.03;;
49101;SDS011;34913;47.520;19.186;2024-03-07T05:26:22;11.20;;;6.85;;
49101;SDS011;34913;47.520;19.186;2024-03-07T05:28:48;7.43;;;4.80;;
49101;SDS011;34913;47.520;19.186;2024-03-07T05:31:13;5.80;;;4.40;;
49101;SDS011;34913;47.520;19.186;2024-03-07T05:33:39;6.43;;;4.30;;
49101;SDS011;34913;47.520;19.186;2024-03-07T05:36:05;6.05;;;4.40;;
49101;SDS011;34913;47.520;19.186;2024-03-07T05:38:43;6.43;;;4.93;;
49101;SDS011;34913;47.520;19.186;2024-03-07T05:41:10;5.97;;;4.30;;
49101;SDS011;34913;47.520;19.186;2024-03-07T05:43:37;6.40;;;4.50;;
49101;SDS011;34913;47.520;19.186;2024-03-07T05:46:03;6.10;;;4.53;;
49101;SDS011;34913;47.520;19.186;2024-03-07T05:48:30;6.93;;;4.15;;
49101;SDS011;34913;47.520;19.186;2024-03-07T05:50:55;6.85;;;4.22;;
49101;SDS011;34913;47.520;19.186;2024-03-07T05:53:21;5.57;;;4.20;;
49101;SDS011;34913;47.520;19.186;2024-03-07T05:55:46;5.95;;;4.20;;
49101;SDS011;34913;47.520;19.186;2024-03-07T05:58:12;5.65;;;4.13;;
49101;SDS011;34913;47.520;19.186;2024-03-07T06:00:38;5.55;;;4.07;;
49101;SDS011;34913;47.520;19.186;2024-03-07T06:03:05;5.18;;;4.00;;
49101;SDS011;34913;47.520;19.186;2024-03-07T06:05:30;5.63;;;4.30;;
49101;SDS011;34913;47.520;19.186;2024-03-07T06:07:56;5.53;;;4.00;;
49101;SDS011;34913;47.520;19.186;2024-03-07T06:10:21;6.00;;;4.40;;
49101;SDS011;34913;47.520;19.186;2024-03-07T06:12:49;5.57;;;4.40;;
49101;SDS011;34913;47.520;19.186;2024-03-07T06:15:15;6.40;;;4.35;;
49101;SDS011;34913;47.520;19.186;2024-03-07T06:17:41;5.93;;;4.13;;
49101;SDS011;34913;47.520;19.186;2024-03-07T06:20:08;5.60;;;3.97;;
49101;SDS011;34913;47.520;19.186;2024-03-07T06:22:47;4.78;;;3.70;;
49101;SDS011;34913;47.520;19.186;2024-03-07T06:25:13;5.60;;;3.90;;
49101;SDS011;34913;47.520;19.186;2024-03-07T06:27:44;7.68;;;4.07;;
49101;SDS011;34913;47.520;19.186;2024-03-07T06:30:14;6.55;;;3.90;;
49101;SDS011;34913;47.520;19.186;2024-03-07T06:32:42;6.38;;;4.22;;
49101;SDS011;34913;47.520;19.186;2024-03-07T06:35:08;5.25;;;4.00;;
49101;SDS011;34913;47.520;19.186;2024-03-07T06:37:35;5.38;;;4.10;;
49101;SDS011;34913;47.520;19.186;2024-03-07T06:40:00;5.82;;;3.65;;
49101;SDS011;34913;47.520;19.186;2024-03-07T06:42:26;4.22;;;3.30;;
49101;SDS011;34913;47.520;19.186;2024-03-07T06:44:51;5.30;;;3.75;;
49101;SDS011;34913;47.520;19.186;2024-03-07T06:47:16;6.63;;;3.80;;
49101;SDS011;34913;47.520;19.186;2024-03-07T06:49:42;4.55;;;3.70;;
49101;SDS011;34913;47.520;19.186;2024-03-07T06:52:07;5.78;;;4.05;;
49101;SDS011;34913;47.520;19.186;2024-03-07T06:54:33;5.70;;;3.92;;
49101;SDS011;34913;47.520;19.186;2024-03-07T06:56:58;7.88;;;4.80;;
49101;SDS011;34913;47.520;19.186;2024-03-07T06:59:24;9.63;;;5.50;;
49101;SDS011;34913;47.520;19.186;2024-03-07T07:01:49;8.85;;;5.60;;
49101;SDS011;34913;47.520;19.186;2024-03-07T07:04:16;7.25;;;4.03;;
49101;SDS011;34913;47.520;19.186;2024-03-07T07:06:41;9.02;;;5.45;;
49101;SDS011;34913;47.520;19.186;2024-03-07T07:09:08;13.77;;;7.70;;
49101;SDS011;34913;47.520;19.186;2024-03-07T07:11:34;14.77;;;5.40;;
49101;SDS011;34913;47.520;19.186;2024-03-07T07:14:00;8.05;;;4.97;;
49101;SDS011;34913;47.520;19.186;2024-03-07T07:16:29;9.15;;;5.93;;
49101;SDS011;34913;47.520;19.186;2024-03-07T07:18:56;5.25;;;3.88;;
49101;SDS011;34913;47.520;19.186;2024-03-07T07:21:21;5.15;;;3.92;;
49101;SDS011;34913;47.520;19.186;2024-03-07T07:23:47;9.07;;;4.65;;
49101;SDS011;34913;47.520;19.186;2024-03-07T07:26:12;5.15;;;3.97;;
49101;SDS011;34913;47.520;19.186;2024-03-07T07:28:37;11.77;;;3.90;;
49101;SDS011;34913;47.520;19.186;2024-03-07T07:31:03;4.25;;;3.65;;
49101;SDS011;34913;47.520;19.186;2024-03-07T07:33:30;5.65;;;3.50;;
49101;SDS011;34913;47.520;19.186;2024-03-07T07:35:56;5.40;;;3.90;;
49101;SDS011;34913;47.520;19.186;2024-03-07T07:38:22;7.97;;;3.70;;
49101;SDS011;34913;47.520;19.186;2024-03-07T07:40:47;5.45;;;3.70;;
49101;SDS011;34913;47.520;19.186;2024-03-07T07:43:13;6.78;;;3.72;;
49101;SDS011;34913;47.520;19.186;2024-03-07T07:45:38;4.63;;;3.53;;
49101;SDS011;34913;47.520;19.186;2024-03-07T07:48:04;5.05;;;3.90;;
49101;SDS011;34913;47.520;19.186;2024-03-07T07:50:30;3.88;;;3.42;;
49101;SDS011;34913;47.520;19.186;2024-03-07T07:52:56;5.18;;;3.47;;
49101;SDS011;34913;47.520;19.186;2024-03-07T07:55:23;4.47;;;3.63;;
49101;SDS011;34913;47.520;19.186;2024-03-07T07:57:51;5.07;;;3.75;;
49101;SDS011;34913;47.520;19.186;2024-03-07T08:00:18;5.30;;;3.70;;
49101;SDS011;34913;47.520;19.186;2024-03-07T08:03:00;6.82;;;3.78;;
49101;SDS011;34913;47.520;19.186;2024-03-07T08:05:31;4.85;;;3.90;;
49101;SDS011;34913;47.520;19.186;2024-03-07T08:08:01;4.53;;;3.50;;
49101;SDS011;34913;47.520;19.186;2024-03-07T08:10:30;4.65;;;3.55;;
49101;SDS011;34913;47.520;19.186;2024-03-07T08:12:56;10.75;;;5.05;;
49101;SDS011;34913;47.520;19.186;2024-03-07T08:15:22;5.82;;;3.85;;
49101;SDS011;34913;47.520;19.186;2024-03-07T08:17:48;6.28;;;3.97;;
49101;SDS011;34913;47.520;19.186;2024-03-07T08:20:15;6.15;;;3.90;;
49101;SDS011;34913;47.520;19.186;2024-03-07T08:22:43;5.15;;;3.40;;
49101;SDS011;34913;47.520;19.186;2024-03-07T08:25:13;4.82;;;3.45;;
49101;SDS011;34913;47.520;19.186;2024-03-07T08:27:41;4.40;;;3.60;;
49101;SDS011;34913;47.520;19.186;2024-03-07T08:30:07;4.45;;;3.60;;
49101;SDS011;34913;47.520;19.186;2024-03-07T08:35:05;4.13;;;3.50;;
49101;SDS011;34913;47.520;19.186;2024-03-07T08:37:41;4.55;;;3.45;;
49101;SDS011;34913;47.520;19.186;2024-03-07T08:40:07;5.82;;;3.53;;
49101;SDS011;34913;47.520;19.186;2024-03-07T08:42:36;3.90;;;3.47;;
49101;SDS011;34913;47.520;19.186;2024-03-07T08:45:02;4.53;;;3.38;;
49101;SDS011;34913;47.520;19.186;2024-03-07T08:47:35;4.15;;;3.38;;
49101;SDS011;34913;47.520;19.186;2024-03-07T08:50:02;5.03;;;4.03;;
49101;SDS011;34913;47.520;19.186;2024-03-07T08:52:31;4.13;;;3.67;;
49101;SDS011;34913;47.520;19.186;2024-03-07T08:54:57;4.88;;;3.78;;
49101;SDS011;34913;47.520;19.186;2024-03-07T08:57:23;5.65;;;3.35;;
49101;SDS011;34913;47.520;19.186;2024-03-07T08:59:48;4.53;;;3.67;;
49101;SDS011;34913;47.520;19.186;2024-03-07T09:02:14;5.50;;;3.53;;
49101;SDS011;34913;47.520;19.186;2024-03-07T09:04:40;5.45;;;3.67;;
49101;SDS011;34913;47.520;19.186;2024-03-07T09:07:06;4.72;;;3.83;;
49101;SDS011;34913;47.520;19.186;2024-03-07T09:09:32;6.30;;;4.10;;
49101;SDS011;34913;47.520;19.186;2024-03-07T09:11:58;6.32;;;3.95;;
49101;SDS011;34913;47.520;19.186;2024-03-07T09:14:26;5.13;;;4.30;;
49101;SDS011;34913;47.520;19.186;2024-03-07T09:16:51;6.90;;;4.25;;
49101;SDS011;34913;47.520;19.186;2024-03-07T09:19:17;4.90;;;3.97;;
49101;SDS011;34913;47.520;19.186;2024-03-07T09:21:45;9.88;;;3.90;;
49101;SDS011;34913;47.520;19.186;2024-03-07T09:24:11;3.72;;;3.22;;
49101;SDS011;34913;47.520;19.186;2024-03-07T09:26:37;4.20;;;3.70;;
49101;SDS011;34913;47.520;19.186;2024-03-07T09:29:02;5.70;;;4.20;;
49101;SDS011;34913;47.520;19.186;2024-03-07T09:31:31;5.88;;;3.60;;
49101;SDS011;34913;47.520;19.186;2024-03-07T09:33:59;6.57;;;4.35;;
49101;SDS011;34913;47.520;19.186;2024-03-07T09:36:26;5.85;;;3.63;;
49101;SDS011;34913;47.520;19.186;2024-03-07T09:38:51;6.63;;;4.05;;
49101;SDS011;34913;47.520;19.186;2024-03-07T09:41:18;5.20;;;4.13;;
49101;SDS011;34913;47.520;19.186;2024-03-07T09:43:43;4.82;;;3.90;;
49101;SDS011;34913;47.520;19.186;2024-03-07T09:46:16;5.70;;;4.20;;
49101;SDS011;34913;47.520;19.186;2024-03-07T09:48:43;7.38;;;4.82;;
49101;SDS011;34913;47.520;19.186;2024-03-07T09:51:09;7.95;;;5.00;;
49101;SDS011;34913;47.520;19.186;2024-03-07T09:53:36;5.38;;;4.40;;
49101;SDS011;34913;47.520;19.186;2024-03-07T09:56:03;7.70;;;4.68;;
49101;SDS011;34913;47.520;19.186;2024-03-07T09:58:31;6.30;;;4.60;;
49101;SDS011;34913;47.520;19.186;2024-03-07T10:00:58;4.93;;;4.18;;
49101;SDS011;34913;47.520;19.186;2024-03-07T10:03:27;5.75;;;4.65;;
49101;SDS011;34913;47.520;19.186;2024-03-07T10:05:54;5.40;;;4.10;;
49101;SDS011;34913;47.520;19.186;2024-03-07T10:08:21;5.53;;;4.30;;
49101;SDS011;34913;47.520;19.186;2024-03-07T10:10:49;5.72;;;4.65;;
49101;SDS011;34913;47.520;19.186;2024-03-07T10:13:15;6.60;;;4.57;;
49101;SDS011;34913;47.520;19.186;2024-03-07T10:15:42;5.68;;;4.47;;
49101;SDS011;34913;47.520;19.186;2024-03-07T10:18:08;6.65;;;4.40;;
49101;SDS011;34913;47.520;19.186;2024-03-07T10:20:34;6.82;;;4.75;;
49101;SDS011;34913;47.520;19.186;2024-03-07T10:23:02;6.28;;;4.75;;
49101;SDS011;34913;47.520;19.186;2024-03-07T10:25:28;7.75;;;4.93;;
49101;SDS011;34913;47.520;19.186;2024-03-07T10:27:53;6.30;;;4.95;;
49101;SDS011;34913;47.520;19.186;2024-03-07T10:30:19;6.63;;;5.22;;
49101;SDS011;34913;47.520;19.186;2024-03-07T10:32:47;6.40;;;4.85;;
49101;SDS011;34913;47.520;19.186;2024-03-07T10:35:19;7.38;;;4.65;;
49101;SDS011;34913;47.520;19.186;2024-03-07T10:37:46;6.38;;;4.80;;
49101;SDS011;34913;47.520;19.186;2024-03-07T10:40:13;6.00;;;4.97;;
49101;SDS011;34913;47.520;19.186;2024-03-07T10:42:46;6.38;;;5.07;;
49101;SDS011;34913;47.520;19.186;2024-03-07T10:45:18;6.47;;;5.28;;
49101;SDS011;34913;47.520;19.186;2024-03-07T10:47:46;6.07;;;4.97;;
49101;SDS011;34913;47.520;19.186;2024-03-07T10:59:16;6.63;;;4.90;;
49101;SDS011;34913;47.520;19.186;2024-03-07T11:01:49;8.48;;;5.07;;
49101;SDS011;34913;47.520;19.186;2024-03-07T11:04:33;6.85;;;4.90;;
49101;SDS011;34913;47.520;19.186;2024-03-07T11:06:59;11.00;;;5.55;;
49101;SDS011;34913;47.520;19.186;2024-03-07T11:09:25;6.38;;;5.43;;
49101;SDS011;34913;47.520;19.186;2024-03-07T11:14:25;6.45;;;5.45;;
49101;SDS011;34913;47.520;19.186;2024-03-07T11:16:51;7.47;;;5.47;;
49101;SDS011;34913;47.520;19.186;2024-03-07T11:19:17;11.35;;;6.55;;
49101;SDS011;34913;47.520;19.186;2024-03-07T11:21:45;10.68;;;5.55;;
49101;SDS011;34913;47.520;19.186;2024-03-07T11:24:21;8.75;;;5.80;;
49101;SDS011;34913;47.520;19.186;2024-03-07T11:26:47;8.50;;;6.20;;
49101;SDS011;34913;47.520;19.186;2024-03-07T11:32:08;7.57;;;5.72;;
49101;SDS011;34913;47.520;19.186;2024-03-07T11:34:37;8.23;;;5.68;;
49101;SDS011;34913;47.520;19.186;2024-03-07T11:37:07;8.77;;;6.43;;
49101;SDS011;34913;47.520;19.186;2024-03-07T11:39:46;10.98;;;6.70;;
49101;SDS011;34913;47.520;19.186;2024-03-07T11:42:26;9.90;;;6.72;;
49101;SDS011;34913;47.520;19.186;2024-03-07T11:44:53;7.75;;;6.15;;
49101;SDS011;34913;47.520;19.186;2024-03-07T11:47:23;8.48;;;6.13;;
49101;SDS011;34913;47.520;19.186;2024-03-07T11:52:22;7.63;;;5.55;;
49101;SDS011;34913;47.520;19.186;2024-03-07T11:54:48;6.75;;;5.75;;
49101;SDS011;34913;47.520;19.186;2024-03-07T11:59:44;10.02;;;5.45;;
49101;SDS011;34913;47.520;19.186;2024-03-07T12:02:13;8.45;;;6.47;;
49101;SDS011;34913;47.520;19.186;2024-03-07T12:04:40;7.97;;;6.47;;
49101;SDS011;34913;47.520;19.186;2024-03-07T12:07:06;9.05;;;6.82;;
49101;SDS011;34913;47.520;19.186;2024-03-07T12:09:31;9.23;;;6.60;;
49101;SDS011;34913;47.520;19.186;2024-03-07T12:12:00;9.75;;;6.45;;
49101;SDS011;34913;47.520;19.186;2024-03-07T12:14:27;8.93;;;6.47;;
49101;SDS011;34913;47.520;19.186;2024-03-07T12:16:52;9.38;;;6.43;;
49101;SDS011;34913;47.520;19.186;2024-03-07T12:19:18;9.88;;;6.57;;
49101;SDS011;34913;47.520;19.186;2024-03-07T12:21:46;8.50;;;6.07;;
49101;SDS011;34913;47.520;19.186;2024-03-07T12:24:13;10.95;;;7.00;;
49101;SDS011;34913;47.520;19.186;2024-03-07T12:26:40;9.90;;;7.28;;
49101;SDS011;34913;47.520;19.186;2024-03-07T12:29:09;11.23;;;8.13;;
49101;SDS011;34913;47.520;19.186;2024-03-07T12:31:40;13.13;;;7.93;;
49101;SDS011;34913;47.520;19.186;2024-03-07T12:34:06;11.57;;;8.18;;
49101;SDS011;34913;47.520;19.186;2024-03-07T12:36:34;10.65;;;6.82;;
49101;SDS011;34913;47.520;19.186;2024-03-07T12:39:24;12.15;;;7.68;;
49101;SDS011;34913;47.520;19.186;2024-03-07T12:41:50;8.63;;;6.72;;
49101;SDS011;34913;47.520;19.186;2024-03-07T12:44:18;11.32;;;7.80;;
49101;SDS011;34913;47.520;19.186;2024-03-07T12:46:53;10.52;;;7.20;;
49101;SDS011;34913;47.520;19.186;2024-03-07T12:49:21;8.20;;;6.28;;
49101;SDS011;34913;47.520;19.186;2024-03-07T12:51:52;11.48;;;7.03;;
49101;SDS011;34913;47.520;19.186;2024-03-07T12:54:22;8.93;;;6.93;;
49101;SDS011;34913;47.520;19.186;2024-03-07T12:56:48;12.65;;;7.78;;
49101;SDS011;34913;47.520;19.186;2024-03-07T12:59:15;11.27;;;6.80;;
49101;SDS011;34913;47.520;19.186;2024-03-07T13:01:41;10.18;;;6.90;;
49101;SDS011;34913;47.520;19.186;2024-03-07T13:04:10;8.80;;;6.88;;
49101;SDS011;34913;47.520;19.186;2024-03-07T13:06:36;8.80;;;6.60;;
49101;SDS011;34913;47.520;19.186;2024-03-07T13:09:01;9.88;;;6.88;;
49101;SDS011;34913;47.520;19.186;2024-03-07T13:11:28;8.15;;;6.28;;
49101;SDS011;34913;47.520;19.186;2024-03-07T13:13:56;10.68;;;6.57;;
49101;SDS011;34913;47.520;19.186;2024-03-07T13:16:22;8.55;;;6.53;;
49101;SDS011;34913;47.520;19.186;2024-03-07T13:18:55;9.80;;;6.57;;
49101;SDS011;34913;47.520;19.186;2024-03-07T13:21:21;9.85;;;7.15;;
49101;SDS011;34913;47.520;19.186;2024-03-07T13:23:46;10.25;;;6.97;;
49101;SDS011;34913;47.520;19.186;2024-03-07T13:26:12;9.50;;;6.78;;
49101;SDS011;34913;47.520;19.186;2024-03-07T13:28:49;10.57;;;6.72;;
49101;SDS011;34913;47.520;19.186;2024-03-07T13:31:16;9.40;;;6.97;;
49101;SDS011;34913;47.520;19.186;2024-03-07T13:33:42;9.13;;;7.03;;
49101;SDS011;34913;47.520;19.186;2024-03-07T13:36:08;11.70;;;7.45;;
49101;SDS011;34913;47.520;19.186;2024-03-07T13:38:34;10.05;;;7.28;;
49101;SDS011;34913;47.520;19.186;2024-03-07T13:41:00;10.35;;;7.20;;
49101;SDS011;34913;47.520;19.186;2024-03-07T13:43:28;13.95;;;7.32;;
49101;SDS011;34913;47.520;19.186;2024-03-07T13:45:54;8.75;;;6.68;;
49101;SDS011;34913;47.520;19.186;2024-03-07T13:48:20;10.18;;;6.75;;
49101;SDS011;34913;47.520;19.186;2024-03-07T13:50:46;9.63;;;6.55;;
49101;SDS011;34913;47.520;19.186;2024-03-07T13:53:16;9.60;;;6.93;;
49101;SDS011;34913;47.520;19.186;2024-03-07T14:32:39;11.20;;;7.05;;
49101;SDS011;34913;47.520;19.186;2024-03-07T14:40:38;10.70;;;7.47;;
49101;SDS011;34913;47.520;19.186;2024-03-07T14:43:04;9.93;;;7.00;;
49101;SDS011;34913;47.520;19.186;2024-03-07T14:45:34;11.63;;;7.53;;
49101;SDS011;34913;47.520;19.186;2024-03-07T14:48:02;10.75;;;7.25;;
49101;SDS011;34913;47.520;19.186;2024-03-07T14:50:29;10.57;;;7.60;;
49101;SDS011;34913;47.520;19.186;2024-03-07T14:52:57;12.35;;;7.53;;
49101;SDS011;34913;47.520;19.186;2024-03-07T14:55:23;12.20;;;7.38;;
49101;SDS011;34913;47.520;19.186;2024-03-07T14:57:49;12.10;;;7.82;;
49101;SDS011;34913;47.520;19.186;2024-03-07T15:00:15;12.55;;;8.68;;
49101;SDS011;34913;47.520;19.186;2024-03-07T15:02:51;15.25;;;8.82;;
49101;SDS011;34913;47.520;19.186;2024-03-07T15:05:21;16.05;;;10.73;;
49101;SDS011;34913;47.520;19.186;2024-03-07T15:07:47;14.43;;;9.57;;
49101;SDS011;34913;47.520;19.186;2024-03-07T15:10:17;19.55;;;13.32;;
49101;SDS011;34913;47.520;19.186;2024-03-07T15:12:46;16.63;;;10.75;;
49101;SDS011;34913;47.520;19.186;2024-03-07T15:15:15;12.27;;;8.90;;
49101;SDS011;34913;47.520;19.186;2024-03-07T15:17:44;12.90;;;8.43;;
49101;SDS011;34913;47.520;19.186;2024-03-07T15:20:10;11.60;;;8.30;;
49101;SDS011;34913;47.520;19.186;2024-03-07T15:25:28;12.10;;;7.75;;
49101;SDS011;34913;47.520;19.186;2024-03-07T15:27:55;12.80;;;7.97;;
49101;SDS011;34913;47.520;19.186;2024-03-07T15:30:24;11.27;;;8.15;;
49101;SDS011;34913;47.520;19.186;2024-03-07T15:33:00;9.57;;;7.30;;
49101;SDS011;34913;47.520;19.186;2024-03-07T15:35:26;10.15;;;7.75;;